Time;durP1;ratioP1;P1;durP2;ratioP2;P2;SDS_P1;SDS_P2;PMS_P1;PMS_P2;Temp;Humidity;BMP_temperature;BMP_pressure;BME280_temperature;BME280_humidity;BME280_pressure;Samples;Min_cycle;Max_cycle;Signal;HPM_P1;HPM_P2
2021/12/02 00:01:00;;;;;;;14.25;11.43;;;3.10;62.50;;;;;;5048335;28;20064;-61
2021/12/02 00:03:26;;;;;;;15.13;11.27;;;3.20;62.40;;;;;;5051766;28;20396;-61
2021/12/02 00:05:52;;;;;;;14.38;9.98;;;3.20;62.50;;;;;;5048718;28;20065;-61
2021/12/02 00:08:17;;;;;;;16.15;10.43;;;3.20;62.40;;;;;;5046802;28;20049;-61
2021/12/02 00:10:43;;;;;;;14.48;9.27;;;3.20;62.60;;;;;;5047388;28;20056;-61
2021/12/02 00:13:10;;;;;;;12.45;8.48;;;3.20;62.70;;;;;;5049137;28;20036;-61
2021/12/02 00:15:41;;;;;;;10.63;7.78;;;3.30;62.60;;;;;;5053407;28;20035;-61
2021/12/02 00:23:28;;;;;;;10.15;7.15;;;3.30;62.50;;;;;;5039734;28;20036;-61
2021/12/02 00:25:56;;;;;;;12.48;7.55;;;3.30;62.30;;;;;;5049861;28;20522;-61
2021/12/02 00:28:28;;;;;;;11.27;7.40;;;3.30;62.30;;;;;;5053055;28;20025;-61
2021/12/02 00:30:59;;;;;;;8.40;6.40;;;3.40;62.30;;;;;;5050514;28;20025;-61
2021/12/02 00:33:26;;;;;;;8.75;6.80;;;3.40;62.30;;;;;;5044254;28;20028;-61
2021/12/02 00:35:52;;;;;;;9.90;7.28;;;3.40;62.20;;;;;;5051631;28;20450;-61
2021/12/02 00:38:19;;;;;;;9.27;6.95;;;3.30;62.00;;;;;;5044096;28;20025;-61
2021/12/02 00:40:46;;;;;;;8.52;6.75;;;3.30;61.90;;;;;;5053719;28;20049;-61
2021/12/02 00:43:12;;;;;;;9.00;6.80;;;3.30;61.70;;;;;;5052220;28;20467;-61
2021/12/02 00:45:43;;;;;;;9.65;7.50;;;3.20;61.70;;;;;;5057134;28;20085;-60
2021/12/02 00:48:10;;;;;;;10.27;8.10;;;3.20;61.60;;;;;;5050877;28;20025;-61
2021/12/02 00:50:38;;;;;;;11.57;9.05;;;3.10;61.60;;;;;;5047774;28;20028;-61
2021/12/02 00:53:06;;;;;;;10.00;7.75;;;3.10;61.80;;;;;;5043427;28;20457;-61
2021/12/02 00:55:36;;;;;;;12.45;8.30;;;3.10;61.90;;;;;;5052514;28;20029;-61
2021/12/02 00:58:02;;;;;;;10.23;8.52;;;3.00;62.20;;;;;;5065812;28;20029;-60
2021/12/02 01:00:29;;;;;;;12.25;8.68;;;3.00;61.90;;;;;;5051406;28;20465;-60
2021/12/02 01:02:57;;;;;;;11.27;8.73;;;3.10;61.90;;;;;;5051245;28;20021;-60
2021/12/02 01:05:24;;;;;;;13.48;10.45;;;3.10;61.70;;;;;;5047905;28;20021;-60
2021/12/02 01:07:50;;;;;;;12.40;10.75;;;3.10;61.50;;;;;;5043123;28;20029;-61
2021/12/02 01:10:15;;;;;;;15.90;12.73;;;3.20;61.30;;;;;;5040393;28;20104;-61
2021/12/02 01:12:41;;;;;;;14.23;12.73;;;3.20;61.10;;;;;;5051568;28;20017;-60
2021/12/02 01:15:08;;;;;;;13.68;10.90;;;3.20;61.10;;;;;;5049019;28;20358;-61
2021/12/02 01:17:33;;;;;;;11.85;10.45;;;3.30;61.00;;;;;;5052435;28;20025;-60
2021/12/02 01:19:59;;;;;;;10.38;8.90;;;3.30;60.70;;;;;;5041861;28;20043;-61
2021/12/02 01:22:28;;;;;;;10.20;6.68;;;3.40;60.60;;;;;;5049740;28;20371;-61
2021/12/02 01:24:54;;;;;;;7.88;6.03;;;3.50;60.40;;;;;;5042375;28;20029;-61
2021/12/02 01:27:21;;;;;;;8.45;6.30;;;3.50;60.30;;;;;;5048481;28;20032;-61
2021/12/02 01:29:48;;;;;;;9.57;6.03;;;3.50;60.20;;;;;;5052631;28;20032;-61
2021/12/02 01:32:15;;;;;;;7.40;5.78;;;3.60;60.20;;;;;;5049294;28;20017;-61
2021/12/02 01:34:46;;;;;;;9.45;5.93;;;3.70;60.00;;;;;;5051935;28;20029;-61
2021/12/02 01:37:13;;;;;;;10.43;6.53;;;3.70;59.90;;;;;;5049199;28;20021;-61
2021/12/02 01:39:39;;;;;;;13.43;8.50;;;3.70;60.00;;;;;;5044354;28;20118;-61
2021/12/02 01:42:09;;;;;;;21.38;12.38;;;3.70;59.90;;;;;;5053263;28;20560;-61
2021/12/02 01:44:41;;;;;;;22.48;14.13;;;3.80;59.70;;;;;;5043656;28;20025;-61
2021/12/02 01:47:12;;;;;;;25.20;14.85;;;3.80;59.60;;;;;;5038024;28;20021;-61
2021/12/02 01:49:42;;;;;;;27.20;15.32;;;3.80;59.70;;;;;;5047607;28;20021;-61
2021/12/02 01:52:11;;;;;;;17.48;11.18;;;3.80;59.60;;;;;;5035226;28;20036;-61
2021/12/02 01:54:43;;;;;;;16.80;9.82;;;3.80;59.60;;;;;;5041611;28;20029;-60
2021/12/02 01:57:43;;;;;;;11.23;7.53;;;3.80;59.50;;;;;;5049086;28;20060;-61
2021/12/02 02:00:15;;;;;;;11.32;7.47;;;3.80;59.50;;;;;;5047118;28;20075;-60
2021/12/02 02:02:42;;;;;;;9.05;6.18;;;3.80;59.40;;;;;;5041296;28;20071;-60
2021/12/02 02:05:12;;;;;;;6.97;4.88;;;3.80;59.10;;;;;;5047922;28;20483;-61
2021/12/02 02:08:03;;;;;;;7.00;4.60;;;3.70;59.10;;;;;;5052039;28;20036;-61
2021/12/02 02:10:35;;;;;;;5.60;4.00;;;3.60;59.10;;;;;;5036689;28;20087;-61
2021/12/02 02:13:05;;;;;;;6.22;3.80;;;3.50;59.20;;;;;;5036849;28;20033;-61
2021/12/02 02:15:31;;;;;;;4.72;3.70;;;3.50;59.30;;;;;;5046308;28;20127;-61
2021/12/02 02:23:28;;;;;;;4.18;3.50;;;3.50;59.00;;;;;;5054224;28;20067;-61
2021/12/02 02:25:54;;;;;;;3.97;3.00;;;3.60;59.20;;;;;;5055562;28;20083;-61
2021/12/02 02:28:20;;;;;;;4.72;3.65;;;3.60;59.00;;;;;;5048808;28;20449;-61
2021/12/02 02:30:46;;;;;;;4.78;3.30;;;3.60;58.90;;;;;;5052394;28;20041;-61
2021/12/02 02:33:12;;;;;;;3.58;3.25;;;3.70;59.00;;;;;;5039348;28;20022;-60
2021/12/02 02:35:43;;;;;;;5.28;3.40;;;3.70;58.80;;;;;;5043472;28;20434;-60
2021/12/02 02:38:09;;;;;;;6.35;4.00;;;3.70;58.70;;;;;;5045797;28;20034;-61
2021/12/02 02:40:38;;;;;;;5.35;3.65;;;3.70;58.60;;;;;;5056184;28;20132;-61
2021/12/02 02:43:08;;;;;;;4.97;3.72;;;3.80;58.60;;;;;;5045220;28;20041;-60
2021/12/02 02:45:34;;;;;;;5.32;3.97;;;3.80;58.60;;;;;;5046646;28;20082;-61
2021/12/02 02:48:00;;;;;;;8.02;4.93;;;3.80;58.60;;;;;;5055284;28;20040;-59
2021/12/02 02:50:26;;;;;;;7.18;5.00;;;3.90;58.50;;;;;;5046276;28;20025;-61
2021/12/02 02:53:15;;;;;;;6.45;4.45;;;3.90;58.50;;;;;;5052626;28;20088;-61
2021/12/02 02:55:43;;;;;;;5.30;3.95;;;3.90;58.40;;;;;;5041754;28;20072;-61
2021/12/02 02:58:54;;;;;;;5.25;4.10;;;3.90;58.40;;;;;;5053244;28;20064;-61
2021/12/02 03:01:26;;;;;;;6.10;4.68;;;3.90;58.50;;;;;;5049185;28;20083;-61
2021/12/02 03:06:49;;;;;;;5.70;4.05;;;3.90;58.50;;;;;;5051664;28;20040;-61
2021/12/02 03:17:09;;;;;;;6.40;4.55;;;4.00;58.40;;;;;;5044815;28;20055;-61
2021/12/02 03:19:40;;;;;;;5.50;4.35;;;4.00;58.40;;;;;;5043043;28;20088;-61
2021/12/02 03:22:06;;;;;;;6.35;4.55;;;4.00;58.30;;;;;;5054844;28;20132;-61
2021/12/02 03:24:32;;;;;;;6.65;5.03;;;4.00;58.30;;;;;;5050697;28;20439;-61
2021/12/02 03:26:57;;;;;;;8.48;5.40;;;4.00;58.40;;;;;;5046760;28;20077;-60
2021/12/02 03:29:23;;;;;;;7.05;4.80;;;4.00;58.40;;;;;;5046417;28;20105;-61
2021/12/02 03:31:49;;;;;;;8.63;5.85;;;4.00;58.50;;;;;;5044709;28;20088;-60
2021/12/02 03:34:14;;;;;;;9.15;5.90;;;4.10;58.50;;;;;;5037912;28;20022;-61
2021/12/02 03:36:40;;;;;;;10.35;6.57;;;4.10;58.50;;;;;;5054582;28;20376;-61
2021/12/02 03:39:08;;;;;;;8.57;6.00;;;4.10;58.50;;;;;;5054251;28;20051;-61
2021/12/02 03:41:34;;;;;;;9.85;5.93;;;4.10;58.50;;;;;;5053745;28;20049;-61
2021/12/02 03:44:00;;;;;;;8.52;5.45;;;4.10;58.40;;;;;;5046824;28;20111;-61
2021/12/02 03:46:26;;;;;;;8.82;5.28;;;4.10;58.40;;;;;;5048777;28;20469;-60
2021/12/02 03:48:53;;;;;;;9.27;5.93;;;4.10;58.40;;;;;;5048978;28;20056;-61
2021/12/02 03:51:19;;;;;;;8.52;5.72;;;4.10;58.50;;;;;;5045236;28;20041;-61
2021/12/02 03:53:46;;;;;;;10.10;5.78;;;4.20;58.50;;;;;;5058453;28;20086;-61
2021/12/02 03:56:13;;;;;;;7.72;5.15;;;4.20;58.60;;;;;;5043660;28;20535;-61
2021/12/02 03:58:45;;;;;;;8.32;5.50;;;4.20;58.60;;;;;;5051626;28;20055;-61
2021/12/02 04:01:12;;;;;;;6.47;5.03;;;4.30;58.70;;;;;;5054230;28;20025;-61
2021/12/02 04:03:38;;;;;;;8.05;5.47;;;4.30;58.80;;;;;;5052847;28;20032;-61
2021/12/02 04:06:04;;;;;;;7.07;4.93;;;4.30;58.80;;;;;;5055475;28;20090;-61
2021/12/02 04:08:44;;;;;;;7.38;5.53;;;4.30;58.90;;;;;;5052512;28;20425;-61
2021/12/02 04:13:42;;;;;;;7.32;5.57;;;4.30;59.10;;;;;;5040837;28;20370;-61
2021/12/02 04:16:14;;;;;;;9.10;6.37;;;4.30;59.30;;;;;;5050313;28;20029;-61
2021/12/02 04:18:40;;;;;;;8.75;6.50;;;4.40;59.40;;;;;;5043618;28;20310;-61
2021/12/02 04:21:06;;;;;;;11.65;6.75;;;4.30;60.00;;;;;;5054531;28;20036;-61
2021/12/02 04:23:31;;;;;;;9.35;6.45;;;4.40;59.60;;;;;;5040240;28;20531;-61
2021/12/02 04:25:57;;;;;;;9.75;6.75;;;4.40;59.70;;;;;;5053918;28;20032;-61
2021/12/02 04:28:22;;;;;;;7.05;6.00;;;4.40;59.70;;;;;;5038161;28;20025;-61
2021/12/02 04:30:48;;;;;;;9.25;6.40;;;4.40;59.90;;;;;;5042772;28;20024;-61
2021/12/02 04:33:14;;;;;;;9.23;6.78;;;4.40;60.00;;;;;;5046729;28;20025;-61
2021/12/02 04:35:39;;;;;;;7.28;6.40;;;4.50;60.00;;;;;;5050401;28;20511;-60
2021/12/02 04:38:05;;;;;;;10.20;7.03;;;4.50;60.10;;;;;;5052746;28;20021;-61
2021/12/02 04:40:31;;;;;;;9.73;6.70;;;4.50;60.30;;;;;;5052609;28;20049;-61
2021/12/02 04:42:57;;;;;;;8.25;6.43;;;4.50;60.30;;;;;;5049522;28;20361;-61
2021/12/02 04:45:22;;;;;;;10.35;7.38;;;4.50;60.30;;;;;;5053880;28;20055;-61
2021/12/02 04:47:48;;;;;;;11.15;7.15;;;4.60;60.40;;;;;;5052451;28;20060;-61
2021/12/02 04:50:14;;;;;;;12.77;7.78;;;4.50;60.50;;;;;;5041384;28;20124;-60
2021/12/02 04:52:40;;;;;;;10.38;7.43;;;4.50;60.60;;;;;;5049989;28;20032;-61
2021/12/02 04:55:07;;;;;;;12.30;8.40;;;4.50;61.00;;;;;;5044644;28;20021;-61
2021/12/02 04:57:32;;;;;;;12.73;9.30;;;4.50;60.90;;;;;;5045168;28;20032;-61
2021/12/02 04:59:58;;;;;;;12.10;9.30;;;4.50;61.00;;;;;;5047365;28;20041;-61
2021/12/02 05:02:24;;;;;;;16.38;10.82;;;4.60;61.20;;;;;;5036594;28;20087;-61
2021/12/02 05:04:49;;;;;;;16.83;12.27;;;4.60;61.30;;;;;;5047149;28;20029;-61
2021/12/02 05:07:15;;;;;;;16.38;12.02;;;4.60;61.40;;;;;;5045786;28;20022;-61
2021/12/02 05:09:40;;;;;;;18.13;12.50;;;4.60;61.50;;;;;;5047436;28;20021;-61
2021/12/02 05:12:06;;;;;;;21.48;14.32;;;4.70;61.70;;;;;;5059574;28;20074;-61
2021/12/02 05:14:32;;;;;;;26.70;15.88;;;4.70;62.30;;;;;;5042501;28;20087;-61
2021/12/02 05:16:57;;;;;;;22.17;15.43;;;4.70;61.90;;;;;;5048854;28;20029;-60
2021/12/02 05:19:23;;;;;;;23.60;15.27;;;4.70;61.90;;;;;;5045758;28;20584;-61
2021/12/02 05:21:49;;;;;;;24.52;15.13;;;4.70;61.90;;;;;;5042536;28;20115;-61
2021/12/02 05:24:15;;;;;;;22.33;14.40;;;4.70;62.00;;;;;;5043794;28;20098;-61
2021/12/02 05:26:40;;;;;;;19.85;12.88;;;4.70;62.10;;;;;;5048997;28;20020;-61
2021/12/02 05:29:06;;;;;;;20.25;13.75;;;4.80;62.10;;;;;;5035164;28;20028;-61
2021/12/02 05:31:32;;;;;;;19.98;13.02;;;4.80;62.10;;;;;;5048743;28;20025;-61
2021/12/02 05:33:57;;;;;;;21.88;15.55;;;4.80;62.10;;;;;;5051442;28;20036;-61
2021/12/02 05:36:23;;;;;;;21.60;14.68;;;4.80;62.10;;;;;;5056853;28;20036;-61
2021/12/02 05:38:49;;;;;;;22.75;16.73;;;4.80;62.70;;;;;;5043636;28;20138;-61
2021/12/02 05:41:16;;;;;;;22.90;15.75;;;4.80;62.20;;;;;;5050813;28;20148;-61
2021/12/02 05:43:42;;;;;;;22.88;15.63;;;4.80;62.30;;;;;;5048635;28;20039;-61
2021/12/02 05:46:08;;;;;;;28.33;17.75;;;4.90;62.50;;;;;;5050943;28;20024;-61
2021/12/02 05:48:33;;;;;;;26.48;16.67;;;4.90;62.60;;;;;;5046125;28;20031;-61
2021/12/02 05:50:59;;;;;;;28.13;17.25;;;4.90;62.60;;;;;;5045722;28;20032;-61
2021/12/02 05:53:25;;;;;;;29.52;18.42;;;5.00;62.60;;;;;;5043554;28;20477;-61
2021/12/02 05:55:51;;;;;;;25.55;18.05;;;5.00;62.60;;;;;;5050660;28;20033;-61
2021/12/02 05:58:17;;;;;;;26.80;17.23;;;5.00;62.50;;;;;;5050853;28;20036;-61
2021/12/02 06:00:43;;;;;;;30.00;19.00;;;5.10;62.60;;;;;;5050563;28;20103;-61
2021/12/02 06:03:08;;;;;;;30.70;20.67;;;5.10;62.60;;;;;;5056275;28;20037;-61
2021/12/02 06:05:34;;;;;;;42.08;24.98;;;5.20;62.60;;;;;;5050973;28;20099;-61
2021/12/02 06:08:03;;;;;;;36.28;23.95;;;5.20;62.60;;;;;;5052858;28;20052;-61
2021/12/02 06:10:29;;;;;;;43.88;25.80;;;5.30;62.60;;;;;;5051596;28;20029;-61
2021/12/02 06:12:56;;;;;;;39.60;23.85;;;5.30;62.60;;;;;;5040846;28;20057;-61
2021/12/02 06:15:21;;;;;;;32.47;21.40;;;5.40;62.50;;;;;;5048861;28;20029;-61
2021/12/02 06:17:47;;;;;;;29.90;19.67;;;5.40;62.30;;;;;;5047864;28;20030;-61
2021/12/02 06:20:17;;;;;;;29.63;19.08;;;5.40;62.30;;;;;;5048001;28;20033;-61
2021/12/02 06:22:43;;;;;;;21.52;14.45;;;5.40;62.20;;;;;;5052579;28;20527;-61
2021/12/02 06:27:38;;;;;;;19.10;14.23;;;5.30;62.30;;;;;;5043954;28;20043;-62
2021/12/02 06:30:04;;;;;;;19.98;14.77;;;5.30;62.70;;;;;;5039234;28;20029;-62
2021/12/02 06:32:30;;;;;;;22.25;14.85;;;5.30;62.40;;;;;;5042093;28;20037;-61
2021/12/02 06:34:55;;;;;;;21.52;15.13;;;5.30;62.60;;;;;;5042532;28;20048;-65
2021/12/02 06:37:21;;;;;;;23.63;16.52;;;5.30;62.80;;;;;;5037801;28;20676;-66
2021/12/02 06:39:47;;;;;;;25.38;17.27;;;5.40;62.80;;;;;;5030374;28;20049;-61
2021/12/02 06:42:14;;;;;;;28.10;18.20;;;5.40;62.80;;;;;;5031166;28;20451;-61
2021/12/02 06:44:40;;;;;;;24.42;16.58;;;5.40;63.00;;;;;;5031737;28;20151;-60
2021/12/02 06:47:05;;;;;;;23.40;15.05;;;5.40;63.00;;;;;;5044506;28;20029;-60
2021/12/02 06:49:33;;;;;;;17.42;11.70;;;5.40;63.00;;;;;;5045059;28;20052;-61
2021/12/02 06:51:59;;;;;;;17.15;11.40;;;5.50;63.10;;;;;;5042352;28;20060;-61
2021/12/02 06:54:25;;;;;;;16.73;10.77;;;5.50;63.10;;;;;;5030694;28;20523;-61
2021/12/02 06:56:51;;;;;;;12.90;10.35;;;5.50;63.20;;;;;;5033019;28;20029;-60
2021/12/02 06:59:17;;;;;;;14.20;10.30;;;5.50;63.20;;;;;;5037367;28;20474;-60
2021/12/02 07:01:43;;;;;;;12.80;9.80;;;5.50;63.30;;;;;;5034882;28;20040;-61
2021/12/02 07:04:09;;;;;;;15.25;9.93;;;5.50;63.30;;;;;;5034574;28;20631;-60
2021/12/02 07:06:38;;;;;;;12.75;8.90;;;5.50;63.40;;;;;;5026314;28;20036;-61
2021/12/02 07:09:05;;;;;;;11.20;8.95;;;5.40;63.40;;;;;;5031726;28;20032;-60
2021/12/02 07:11:31;;;;;;;11.82;9.52;;;5.40;63.60;;;;;;5032207;28;20029;-60
2021/12/02 07:14:01;;;;;;;12.20;9.43;;;5.30;63.80;;;;;;5028786;28;20034;-60
2021/12/02 07:16:27;;;;;;;12.02;8.82;;;5.30;64.00;;;;;;5026070;28;20037;-62
2021/12/02 07:18:57;;;;;;;12.70;8.68;;;5.30;64.20;;;;;;5030248;28;20474;-60
2021/12/02 07:21:24;;;;;;;14.35;9.68;;;5.30;64.30;;;;;;5023743;28;20060;-62
2021/12/02 07:23:51;;;;;;;11.50;8.90;;;5.30;64.50;;;;;;5031683;28;20044;-60
2021/12/02 07:26:17;;;;;;;14.55;10.95;;;5.30;64.60;;;;;;5030710;28;20053;-59
2021/12/02 07:28:45;;;;;;;12.52;9.68;;;5.30;64.70;;;;;;5025885;28;20135;-61
2021/12/02 07:31:12;;;;;;;13.75;10.48;;;5.30;64.90;;;;;;5033406;28;20105;-60
2021/12/02 07:33:39;;;;;;;13.40;10.23;;;5.30;64.90;;;;;;5035450;28;20458;-62
2021/12/02 07:36:06;;;;;;;12.73;9.68;;;5.30;65.10;;;;;;5034442;28;20120;-61
2021/12/02 07:38:32;;;;;;;13.57;9.35;;;5.40;65.30;;;;;;5031734;28;20021;-62
2021/12/02 07:41:05;;;;;;;12.18;9.57;;;5.40;65.40;;;;;;5029097;28;20044;-61
2021/12/02 07:43:36;;;;;;;151.27;21.27;;;5.40;65.40;;;;;;5031346;28;20862;-62
2021/12/02 07:46:04;;;;;;;13.57;9.88;;;5.50;65.60;;;;;;5030433;28;20061;-61
2021/12/02 07:48:30;;;;;;;12.07;9.68;;;5.50;65.90;;;;;;5035849;28;20546;-62
2021/12/02 07:51:00;;;;;;;10.55;8.30;;;5.60;65.70;;;;;;5028596;28;20051;-62
2021/12/02 07:53:28;;;;;;;10.98;9.45;;;5.60;65.90;;;;;;5029402;28;20124;-61
2021/12/02 07:55:56;;;;;;;13.27;8.95;;;5.60;65.80;;;;;;5027864;28;20041;-61
2021/12/02 07:58:24;;;;;;;11.82;8.57;;;5.60;65.80;;;;;;5026159;28;20492;-61
2021/12/02 08:00:50;;;;;;;11.70;9.60;;;5.60;65.90;;;;;;5024906;28;20118;-61
2021/12/02 08:03:16;;;;;;;11.57;9.00;;;5.60;66.00;;;;;;5020181;28;20044;-62
2021/12/02 08:05:42;;;;;;;11.02;8.85;;;5.70;66.10;;;;;;5024397;28;20038;-59
2021/12/02 08:08:09;;;;;;;13.68;9.95;;;5.70;66.30;;;;;;5019161;28;20662;-60
2021/12/02 08:10:36;;;;;;;11.15;9.13;;;5.70;66.40;;;;;;5019121;28;20025;-62
2021/12/02 08:13:03;;;;;;;14.23;10.13;;;5.80;66.50;;;;;;5029227;28;20037;-61
2021/12/02 08:15:30;;;;;;;10.68;8.88;;;5.80;66.50;;;;;;5025701;28;20033;-62
2021/12/02 08:17:57;;;;;;;11.90;9.27;;;5.80;66.60;;;;;;5024001;28;20033;-62
2021/12/02 08:20:25;;;;;;;11.27;9.10;;;5.90;66.70;;;;;;5028573;28;20091;-61
2021/12/02 08:22:51;;;;;;;10.52;8.73;;;6.00;66.80;;;;;;5028441;28;20152;-61
2021/12/02 08:25:20;;;;;;;11.00;8.68;;;6.00;66.80;;;;;;5016654;28;20036;-59
2021/12/02 08:27:46;;;;;;;13.05;9.25;;;6.10;66.80;;;;;;5023369;28;20036;-59
2021/12/02 08:30:13;;;;;;;12.70;9.15;;;6.10;66.70;;;;;;5030012;28;20017;-60
2021/12/02 08:32:43;;;;;;;11.90;9.20;;;6.10;66.70;;;;;;5026701;28;20029;-59
2021/12/02 08:35:13;;;;;;;12.45;9.38;;;6.10;66.90;;;;;;5028491;28;20135;-61
2021/12/02 08:37:45;;;;;;;12.65;9.23;;;6.20;67.10;;;;;;5028118;28;20033;-58
2021/12/02 08:40:13;;;;;;;11.73;9.00;;;6.20;67.10;;;;;;5027059;28;20045;-58
2021/12/02 08:42:39;;;;;;;13.45;9.32;;;6.20;67.20;;;;;;5025455;28;20038;-62
2021/12/02 08:45:05;;;;;;;13.77;10.48;;;6.20;67.20;;;;;;5023826;28;20030;-62
2021/12/02 08:47:31;;;;;;;14.70;10.23;;;6.30;67.30;;;;;;5019520;28;20029;-62
2021/12/02 08:49:58;;;;;;;11.88;9.57;;;6.30;67.40;;;;;;5023424;28;20867;-60
2021/12/02 08:52:28;;;;;;;13.13;10.27;;;6.30;67.50;;;;;;5020898;28;20041;-62
2021/12/02 08:54:55;;;;;;;11.10;9.02;;;6.30;67.50;;;;;;5018785;28;20507;-61
2021/12/02 08:57:22;;;;;;;12.35;8.80;;;6.30;67.70;;;;;;5018494;28;20028;-60
2021/12/02 08:59:49;;;;;;;11.13;8.82;;;6.30;67.80;;;;;;5020445;28;20471;-61
2021/12/02 09:02:16;;;;;;;14.00;9.55;;;6.30;68.00;;;;;;5022539;28;20060;-62
2021/12/02 09:04:42;;;;;;;9.88;8.80;;;6.30;68.40;;;;;;5013910;28;20762;-61
2021/12/02 09:07:08;;;;;;;11.80;9.15;;;6.30;68.30;;;;;;5023090;28;20033;-62
2021/12/02 09:09:35;;;;;;;11.48;8.68;;;6.30;68.60;;;;;;5025047;28;20025;-62
2021/12/02 09:12:02;;;;;;;12.25;9.05;;;6.40;68.40;;;;;;5021052;28;20032;-61
2021/12/02 09:14:28;;;;;;;13.20;8.88;;;6.50;68.40;;;;;;5021997;28;20022;-61
2021/12/02 09:16:55;;;;;;;11.02;8.60;;;6.50;68.40;;;;;;5017548;28;20040;-60
2021/12/02 09:19:20;;;;;;;9.45;7.97;;;6.60;68.50;;;;;;5025056;28;20929;-61
2021/12/02 09:21:47;;;;;;;11.07;9.02;;;6.60;68.30;;;;;;5022760;28;20037;-61
2021/12/02 09:24:13;;;;;;;11.07;8.52;;;6.70;68.40;;;;;;5025791;28;20047;-61
2021/12/02 09:26:39;;;;;;;11.07;8.25;;;6.70;68.30;;;;;;5023903;28;20060;-60
2021/12/02 09:29:05;;;;;;;10.32;8.07;;;6.70;68.40;;;;;;5017912;28;20120;-63
2021/12/02 09:31:32;;;;;;;11.52;8.55;;;6.70;68.30;;;;;;5019083;28;20034;-60
2021/12/02 09:33:58;;;;;;;11.38;8.45;;;6.70;68.40;;;;;;5018108;28;21901;-61
2021/12/02 09:36:24;;;;;;;12.38;8.63;;;6.70;68.50;;;;;;5023650;28;20033;-61
2021/12/02 09:38:50;;;;;;;10.48;8.40;;;6.80;68.70;;;;;;5023757;28;20037;-60
2021/12/02 09:41:15;;;;;;;13.68;9.23;;;6.80;68.60;;;;;;5019418;28;20053;-63
2021/12/02 09:43:42;;;;;;;12.90;9.73;;;6.80;68.60;;;;;;5016004;28;20045;-59
2021/12/02 09:46:08;;;;;;;13.23;10.07;;;6.80;68.70;;;;;;5013281;28;20088;-62
2021/12/02 09:48:36;;;;;;;12.98;9.27;;;6.90;68.80;;;;;;5022976;28;20041;-61
2021/12/02 09:51:15;;;;;;;11.77;9.95;;;6.90;68.90;;;;;;5012142;28;20083;-60
2021/12/02 09:53:56;;;;;;;12.15;9.35;;;6.90;68.80;;;;;;5019362;28;20684;-61
2021/12/02 09:56:27;;;;;;;14.20;10.33;;;7.00;68.90;;;;;;5023541;28;20052;-60
2021/12/02 09:58:57;;;;;;;14.57;10.23;;;7.00;68.90;;;;;;5005116;28;20411;-61
2021/12/02 10:01:27;;;;;;;11.85;8.70;;;7.00;68.90;;;;;;5024088;28;20391;-59
2021/12/02 10:04:02;;;;;;;14.48;10.23;;;7.10;69.00;;;;;;5030541;28;20029;-61
2021/12/02 10:06:31;;;;;;;13.70;8.75;;;7.10;69.20;;;;;;5027789;28;20034;-59
2021/12/02 10:12:07;;;;;;;12.13;8.55;;;7.20;68.90;;;;;;4989922;28;20030;-61
2021/12/02 10:14:38;;;;;;;12.95;9.65;;;7.30;68.80;;;;;;4985276;28;20061;-69
2021/12/02 10:17:06;;;;;;;10.55;7.82;;;7.30;68.80;;;;;;5005000;28;20033;-64
2021/12/02 10:19:32;;;;;;;10.75;8.20;;;7.30;68.80;;;;;;5022417;28;20033;-63
2021/12/02 10:22:08;;;;;;;11.90;8.57;;;7.30;68.70;;;;;;5025659;28;20033;-64
2021/12/02 10:24:42;;;;;;;11.43;8.07;;;7.40;68.70;;;;;;5026496;28;20056;-64
2021/12/02 10:27:08;;;;;;;11.70;8.20;;;7.40;68.80;;;;;;5022251;28;20140;-63
2021/12/02 10:29:37;;;;;;;12.30;9.18;;;7.40;68.80;;;;;;5022178;28;20803;-63
2021/12/02 10:32:13;;;;;;;12.80;9.63;;;7.40;68.90;;;;;;5028604;28;20032;-63
2021/12/02 10:34:52;;;;;;;12.35;8.98;;;7.40;69.10;;;;;;5018501;28;20038;-64
2021/12/02 10:37:21;;;;;;;11.93;9.15;;;7.40;69.10;;;;;;5021671;28;20037;-62
2021/12/02 10:40:15;;;;;;;11.80;8.63;;;7.40;69.40;;;;;;5018569;28;20056;-62
2021/12/02 10:42:43;;;;;;;11.70;8.70;;;7.50;69.20;;;;;;5031765;28;20132;-63
2021/12/02 10:45:22;;;;;;;12.45;8.65;;;7.50;69.20;;;;;;5028324;28;21702;-63
2021/12/02 10:47:52;;;;;;;10.75;7.70;;;7.60;69.20;;;;;;5024603;28;20499;-62
2021/12/02 10:50:19;;;;;;;9.38;8.00;;;7.70;69.20;;;;;;5026989;28;20793;-63
2021/12/02 10:52:45;;;;;;;11.95;9.68;;;7.70;69.00;;;;;;5022346;28;20033;-63
2021/12/02 10:55:18;;;;;;;11.50;8.10;;;7.70;69.00;;;;;;5028234;28;20032;-63
2021/12/02 10:57:47;;;;;;;11.63;8.75;;;7.80;69.10;;;;;;5026909;28;20025;-62
2021/12/02 11:00:16;;;;;;;12.13;8.93;;;7.80;69.10;;;;;;5043239;28;20029;-62
2021/12/02 11:02:48;;;;;;;11.13;8.38;;;7.90;69.10;;;;;;5025381;28;20704;-63
2021/12/02 11:05:31;;;;;;;9.65;7.95;;;7.90;69.10;;;;;;5028760;28;20017;-62
2021/12/02 11:08:05;;;;;;;10.40;8.18;;;8.00;69.10;;;;;;5022790;28;20043;-61
2021/12/02 11:10:37;;;;;;;11.82;8.48;;;8.00;69.10;;;;;;5032047;28;20729;-62
2021/12/02 11:13:03;;;;;;;;;;;8.10;69.10;;;;;;5037994;28;20025;-61
2021/12/02 11:15:31;;;;;;;10.95;7.72;;;8.10;69.00;;;;;;5034025;28;19928;-62
2021/12/02 11:18:02;;;;;;;10.27;7.90;;;8.20;68.90;;;;;;5033555;28;20397;-61
2021/12/02 11:20:36;;;;;;;;;;;8.20;68.80;;;;;;5031452;28;20120;-62
2021/12/02 11:23:09;;;;;;;9.00;6.93;;;8.20;68.90;;;;;;5028897;28;19988;-62
2021/12/02 11:25:39;;;;;;;8.93;7.47;;;8.30;68.60;;;;;;5037211;28;20037;-61
2021/12/02 11:28:07;;;;;;;10.98;8.25;;;8.30;68.60;;;;;;5035841;28;20400;-62
2021/12/02 11:30:37;;;;;;;10.15;8.38;;;8.30;68.60;;;;;;5034760;28;20029;-62
2021/12/02 11:33:06;;;;;;;12.00;7.80;;;8.40;68.70;;;;;;5033196;28;20021;-62
2021/12/02 11:35:40;;;;;;;9.38;7.82;;;8.50;69.00;;;;;;5031469;28;20392;-62
2021/12/02 11:38:14;;;;;;;10.35;8.38;;;8.50;68.50;;;;;;5029519;28;20028;-62
2021/12/02 11:40:47;;;;;;;11.25;8.23;;;8.60;68.60;;;;;;5033189;28;20053;-62
2021/12/02 11:43:16;;;;;;;10.82;8.18;;;8.60;68.50;;;;;;5028320;28;20677;-62
2021/12/02 11:45:46;;;;;;;11.60;7.30;;;8.60;69.00;;;;;;5034700;28;20943;-62
2021/12/02 11:48:14;;;;;;;8.75;7.25;;;8.70;68.40;;;;;;5035214;28;20033;-62
2021/12/02 11:50:40;;;;;;;10.63;7.43;;;8.70;68.40;;;;;;5032877;28;20021;-62
2021/12/02 11:53:06;;;;;;;10.30;7.35;;;8.70;68.50;;;;;;5032670;28;20049;-62
2021/12/02 11:55:35;;;;;;;9.73;6.72;;;8.70;68.40;;;;;;5031831;28;20124;-62
2021/12/02 11:58:01;;;;;;;12.32;6.57;;;8.70;68.60;;;;;;5026037;28;20031;-62
2021/12/02 12:00:29;;;;;;;9.70;7.32;;;8.70;68.50;;;;;;5022964;28;20037;-62
2021/12/02 12:03:05;;;;;;;11.02;8.77;;;8.70;68.70;;;;;;5028364;28;20050;-62
2021/12/02 12:05:38;;;;;;;11.57;9.18;;;8.70;68.90;;;;;;5021835;28;20037;-61
2021/12/02 12:08:05;;;;;;;11.65;8.77;;;8.80;69.30;;;;;;5019173;28;21646;-62
2021/12/02 12:10:39;;;;;;;13.07;10.63;;;8.80;69.10;;;;;;5021082;28;20122;-61
2021/12/02 12:13:13;;;;;;;12.60;9.07;;;8.80;69.10;;;;;;5016764;28;20105;-60
2021/12/02 12:15:47;;;;;;;11.27;8.77;;;8.90;69.00;;;;;;5004056;28;20316;-61
2021/12/02 12:18:28;;;;;;;11.88;8.95;;;8.90;69.00;;;;;;5014999;28;20033;-63
2021/12/02 12:20:54;;;;;;;11.67;8.37;;;8.90;68.70;;;;;;5024028;28;20025;-61
2021/12/02 12:23:31;;;;;;;10.80;7.53;;;8.90;68.70;;;;;;5021382;28;20584;-60
2021/12/02 12:26:37;;;;;;;10.23;6.78;;;9.00;68.70;;;;;;5025344;28;21589;-61
2021/12/02 12:29:06;;;;;;;9.07;7.22;;;8.90;68.60;;;;;;5023029;28;20025;-59
2021/12/02 12:31:50;;;;;;;9.27;6.53;;;8.90;68.70;;;;;;5025078;28;20029;-60
2021/12/02 12:34:48;;;;;;;8.45;7.10;;;8.90;68.80;;;;;;5027628;28;20864;-59
2021/12/02 12:37:20;;;;;;;11.68;7.47;;;8.80;68.90;;;;;;5023899;28;20037;-62
2021/12/02 12:40:03;;;;;;;9.77;7.50;;;8.80;68.90;;;;;;5026672;28;20154;-62
2021/12/02 12:42:29;;;;;;;11.75;7.95;;;8.70;69.10;;;;;;5019444;28;20041;-62
2021/12/02 12:44:57;;;;;;;10.77;7.78;;;8.60;69.20;;;;;;5018117;28;20072;-62
2021/12/02 12:47:46;;;;;;;10.68;7.43;;;8.60;69.50;;;;;;5016803;28;20089;-61
2021/12/02 12:50:36;;;;;;;10.77;7.70;;;8.60;69.50;;;;;;5023623;28;20092;-61
2021/12/02 12:53:05;;;;;;;11.10;7.53;;;8.60;69.70;;;;;;5024132;28;20029;-61
2021/12/02 12:55:33;;;;;;;12.60;8.38;;;8.60;69.80;;;;;;5022887;28;20039;-62
2021/12/02 12:58:16;;;;;;;13.20;9.07;;;8.60;69.70;;;;;;5019342;28;20037;-62
2021/12/02 13:00:46;;;;;;;13.95;9.95;;;8.60;69.80;;;;;;5018759;28;20036;-62
2021/12/02 13:03:20;;;;;;;19.65;11.65;;;8.60;70.10;;;;;;5014656;28;20046;-62
2021/12/02 13:05:58;;;;;;;28.65;17.17;;;8.50;69.90;;;;;;5014408;28;20075;-62
2021/12/02 13:08:35;;;;;;;40.60;23.95;;;8.50;70.00;;;;;;5011724;28;20048;-63
2021/12/02 13:11:31;;;;;;;48.35;29.80;;;8.50;70.20;;;;;;5015817;28;20163;-61
2021/12/02 13:14:00;;;;;;;56.38;31.42;;;8.40;70.40;;;;;;5013326;28;23640;-60
2021/12/02 13:16:26;;;;;;;43.90;24.00;;;8.40;70.60;;;;;;5012637;28;20033;-62
2021/12/02 13:19:10;;;;;;;28.20;18.33;;;8.40;70.80;;;;;;5012013;28;20110;-60
2021/12/02 13:21:36;;;;;;;18.55;12.57;;;8.30;70.80;;;;;;5017144;28;20473;-61
2021/12/02 13:24:04;;;;;;;15.07;10.43;;;8.30;71.00;;;;;;5011495;28;20161;-63
2021/12/02 13:26:31;;;;;;;12.48;9.15;;;8.20;71.00;;;;;;5010702;28;20029;-63